map of MNZ home
MNZ - Airport
Location
City:  Washington, District of Columbia, United States
Name:Manassas Regional/Harry P Davis Field
ICAO:KHEF
IATA:MNZ
FAA LID:HEF

Details
Type:Airport (Airfield)
Use:Public/Civil, International (customs landing rights)
Latitude:3843'16"N (38.721023)
Longitude:7730'54"W (-77.515100)
Datum:WGS 1984
Elevation:192 ft (59 m)
Variation:10.43W (WMM2015v2 magnetic declination)
0.01 annual change
Runways:2
Longest:6200 × 100 ft (1890 × 30.5 m), paved

Time
Time Zone:UTC-5 (DST-4)
Local Time:

Weather
METAR:KHEF 041356Z 00000KT 7SM CLR 03/01 A3012 RMK AO2 SLP210 T00280011 PNO $

Related Locations
Nearby:
Farthest:YAUG: 11675 mi / 18788 km
Augusta [Augusta Airport], WA, AU

Find:

   beyond  
but within

Other Information
Maps:
NOTAMs:
Links:
Sources:

  
  • flag of United States
  • flag of District of Columbia
  

Airport Diagram

Airport diagram for MNZ

Airport diagram PDF from FAA

Sectional Chart

Flight Planning
at skyvector.com

Satellite Image

Google Maps Satellite view

 

Copyright © 2004-2019 Karl L. Swartz. All rights reserved.
The Great Circle Mapper name and logo are trademarks of the Great Circle Mapper.
All other trademarks mentioned herein belong to their respective owners.
Please see credits for attibutions and further copyright information.

  Follow gcmap on Facebook Follow gcmap on Twitter GCmap on LinkedIn

hCard Microformat

Geo Microformat